createdAt,value
2017-12-01T00:01:29.158Z,3.83
2017-12-01T00:03:57.272Z,5.07
2017-12-01T00:06:25.440Z,6.85
2017-12-01T00:08:54.326Z,4.40
2017-12-01T00:11:23.200Z,4.70
2017-12-01T00:13:51.324Z,4.83
2017-12-01T00:16:19.487Z,4.60
2017-12-01T00:18:47.592Z,3.83
2017-12-01T00:21:15.722Z,4.93
2017-12-01T00:23:43.845Z,4.80
2017-12-01T00:26:12.731Z,3.90
2017-12-01T00:28:41.629Z,3.43
2017-12-01T00:31:10.518Z,3.45
2017-12-01T00:33:39.406Z,3.67
2017-12-01T00:36:08.297Z,3.33
2017-12-01T00:38:37.191Z,4.25
2017-12-01T00:41:06.076Z,3.10
2017-12-01T00:43:34.971Z,4.10
2017-12-01T00:46:03.889Z,3.95
2017-12-01T00:48:32.804Z,3.78
2017-12-01T00:51:00.923Z,4.28
2017-12-01T00:53:29.811Z,4.82
2017-12-01T00:55:58.691Z,4.32
2017-12-01T00:58:27.585Z,4.13
2017-12-01T01:00:56.510Z,3.12
2017-12-01T01:03:25.399Z,5.00
2017-12-01T01:05:53.493Z,3.50
2017-12-01T01:08:21.637Z,4.05
2017-12-01T01:10:49.898Z,7.70
2017-12-01T01:13:18.785Z,4.47
2017-12-01T01:15:46.926Z,12.40
2017-12-01T01:18:15.052Z,12.13
2017-12-01T01:20:43.172Z,12.43
2017-12-01T01:23:11.322Z,9.43
2017-12-01T01:25:39.471Z,8.73
2017-12-01T01:28:08.358Z,4.45
2017-12-01T01:30:36.468Z,7.43
2017-12-01T01:33:04.587Z,6.22
2017-12-01T01:35:32.696Z,8.23
2017-12-01T01:38:00.826Z,6.65
2017-12-01T01:40:28.943Z,6.57
2017-12-01T01:42:57.106Z,6.12
2017-12-01T01:45:25.227Z,13.20
2017-12-01T01:47:54.141Z,17.95
2017-12-01T01:50:22.259Z,15.43
2017-12-01T01:52:50.367Z,11.23
2017-12-01T01:55:19.266Z,9.18
2017-12-01T01:57:48.143Z,8.88
2017-12-01T02:00:17.037Z,7.17
2017-12-01T02:02:45.923Z,7.12
2017-12-01T02:05:14.830Z,7.18
2017-12-01T02:07:43.735Z,4.80
2017-12-01T02:10:12.598Z,5.55
2017-12-01T02:12:41.491Z,4.93
2017-12-01T02:15:10.394Z,4.87
2017-12-01T02:17:38.510Z,5.50
2017-12-01T02:20:06.637Z,4.28
2017-12-01T02:22:34.824Z,4.05
2017-12-01T02:25:03.681Z,5.12
2017-12-01T02:27:32.571Z,4.20
2017-12-01T02:30:01.484Z,4.07
2017-12-01T02:32:29.600Z,4.35
2017-12-01T02:34:59.241Z,3.50
2017-12-01T02:37:28.194Z,5.25
2017-12-01T02:39:57.053Z,5.50
2017-12-01T02:42:25.986Z,5.13
2017-12-01T02:44:54.108Z,8.70
2017-12-01T02:47:23.914Z,7.40
2017-12-01T02:49:52.807Z,3.80
2017-12-01T02:52:20.930Z,5.78
2017-12-01T02:54:54.539Z,3.75
2017-12-01T02:57:22.659Z,3.85
2017-12-01T02:59:50.788Z,4.40
2017-12-01T03:02:19.007Z,3.85
2017-12-01T03:04:47.871Z,4.30
2017-12-01T03:07:16.754Z,4.65
2017-12-01T03:09:45.651Z,3.80
2017-12-01T03:12:13.839Z,4.05
2017-12-01T03:14:41.968Z,4.80
2017-12-01T03:17:10.084Z,6.30
2017-12-01T03:19:38.217Z,4.70
2017-12-01T03:22:06.334Z,3.42
2017-12-01T03:24:34.477Z,4.53
2017-12-01T03:27:02.682Z,3.20
2017-12-01T03:29:31.556Z,3.12
2017-12-01T03:32:00.433Z,3.58
2017-12-01T03:34:29.326Z,3.87
2017-12-01T03:36:58.205Z,5.37
2017-12-01T03:39:27.094Z,4.70
2017-12-01T03:41:55.974Z,3.37
2017-12-01T03:44:24.099Z,3.53
2017-12-01T03:46:52.218Z,3.15
2017-12-01T03:49:20.352Z,5.80
2017-12-01T03:51:48.462Z,6.07
2017-12-01T03:54:16.684Z,6.03
2017-12-01T03:56:45.535Z,3.62
2017-12-01T03:59:14.422Z,3.33
2017-12-01T04:01:43.315Z,3.70
2017-12-01T04:04:12.240Z,3.15
2017-12-01T04:06:40.337Z,3.80
2017-12-01T04:09:08.485Z,5.12
2017-12-01T04:11:37.375Z,4.45
2017-12-01T04:14:06.247Z,3.20
2017-12-01T04:16:34.365Z,3.87
2017-12-01T04:19:02.535Z,3.55
2017-12-01T04:21:30.638Z,3.72
2017-12-01T04:23:58.818Z,4.80
2017-12-01T04:26:27.720Z,4.30
2017-12-01T04:28:56.597Z,3.95
2017-12-01T04:31:25.506Z,3.87
2017-12-01T04:33:53.619Z,4.10
2017-12-01T04:36:21.751Z,4.20
2017-12-01T04:38:49.869Z,4.85
2017-12-01T04:41:18.009Z,3.25
2017-12-01T04:43:46.123Z,3.30
2017-12-01T04:46:14.256Z,5.00
2017-12-01T04:48:42.370Z,5.60
2017-12-01T04:51:10.507Z,6.22
2017-12-01T04:53:38.640Z,2.97
2017-12-01T04:56:07.530Z,5.75
2017-12-01T04:58:36.411Z,8.83
2017-12-01T05:01:05.313Z,4.00
2017-12-01T05:03:34.299Z,8.00
2017-12-01T05:06:03.195Z,5.85
2017-12-01T05:08:32.082Z,2.95
2017-12-01T05:11:00.971Z,3.72
2017-12-01T05:13:29.863Z,3.30
2017-12-01T05:15:58.847Z,3.53
2017-12-01T05:18:27.743Z,3.40
2017-12-01T05:20:56.629Z,3.15
2017-12-01T05:23:25.554Z,4.32
2017-12-01T05:25:54.422Z,3.20
2017-12-01T05:28:23.342Z,3.28
2017-12-01T05:30:51.467Z,3.22
2017-12-01T05:33:20.359Z,3.03
2017-12-01T05:35:49.248Z,3.85
2017-12-01T05:38:18.146Z,3.92
2017-12-01T05:40:47.030Z,4.25
2017-12-01T05:43:15.960Z,3.20
2017-12-01T05:45:44.110Z,3.80
2017-12-01T05:48:12.233Z,3.75
2017-12-01T05:50:40.363Z,5.68
2017-12-01T05:53:08.473Z,3.70
2017-12-01T05:55:36.602Z,2.92
2017-12-01T05:58:05.031Z,3.60
2017-12-01T06:00:33.169Z,3.90
2017-12-01T06:03:01.290Z,3.65
2017-12-01T06:05:29.415Z,3.83
2017-12-01T06:07:57.539Z,4.93
2017-12-01T06:10:25.670Z,4.75
2017-12-01T06:12:53.800Z,5.82
2017-12-01T06:15:22.680Z,2.95
2017-12-01T06:17:51.580Z,4.50
2017-12-01T06:20:20.480Z,4.10
2017-12-01T06:22:48.606Z,5.18
2017-12-01T06:25:16.707Z,4.15
2017-12-01T06:27:45.601Z,5.60
2017-12-01T06:30:14.491Z,4.47
2017-12-01T06:32:43.399Z,3.65
2017-12-01T06:35:11.519Z,4.93
2017-12-01T06:37:39.651Z,4.28
2017-12-01T06:40:07.765Z,4.15
2017-12-01T06:42:36.001Z,4.10
2017-12-01T06:45:04.884Z,4.43
2017-12-01T06:47:33.005Z,3.40
2017-12-01T06:50:01.135Z,3.80
2017-12-01T06:52:29.262Z,4.43
2017-12-01T06:54:58.139Z,5.47
2017-12-01T06:57:26.276Z,4.53
2017-12-01T06:59:54.402Z,3.90
2017-12-01T07:02:22.527Z,3.90
2017-12-01T07:04:50.645Z,3.72
2017-12-01T07:07:18.763Z,4.75
2017-12-01T07:09:46.883Z,5.00
2017-12-01T07:12:15.012Z,4.15
2017-12-01T07:14:43.130Z,6.78
2017-12-01T07:17:12.017Z,6.60
2017-12-01T07:19:40.153Z,7.82
2017-12-01T07:22:08.277Z,7.57
2017-12-01T07:24:37.154Z,5.90
2017-12-01T07:27:08.105Z,5.53
2017-12-01T07:29:36.990Z,7.57
2017-12-01T07:32:05.912Z,7.22
2017-12-01T07:34:34.009Z,6.25
2017-12-01T07:37:02.147Z,10.65
2017-12-01T07:39:30.279Z,6.85
2017-12-01T07:41:58.431Z,6.12
2017-12-01T07:44:32.390Z,6.50
2017-12-01T07:47:01.283Z,11.40
2017-12-01T07:49:29.416Z,7.55
2017-12-01T07:51:57.531Z,5.05
2017-12-01T07:54:25.653Z,4.78
2017-12-01T07:56:53.797Z,6.53
2017-12-01T07:59:21.899Z,5.37
2017-12-01T08:01:50.036Z,4.90
2017-12-01T08:04:18.163Z,7.37
2017-12-01T08:06:46.287Z,5.25
2017-12-01T08:09:14.420Z,6.30
2017-12-01T08:11:43.292Z,3.47
2017-12-01T08:14:11.451Z,8.50
2017-12-01T08:16:51.369Z,2.90
2017-12-01T08:19:21.351Z,3.40
2017-12-01T08:22:02.024Z,5.03
2017-12-01T08:24:42.100Z,3.83
2017-12-01T08:27:10.239Z,4.15
2017-12-01T08:29:39.124Z,5.73
2017-12-01T08:32:08.006Z,3.90
2017-12-01T08:34:36.901Z,3.35
2017-12-01T08:37:05.794Z,7.25
2017-12-01T08:39:34.683Z,4.43
2017-12-01T08:42:03.577Z,3.45
2017-12-01T08:44:32.468Z,4.47
2017-12-01T08:47:01.341Z,4.60
2017-12-01T08:49:30.253Z,6.07
2017-12-01T08:51:58.399Z,6.80
2017-12-01T08:54:26.523Z,4.03
2017-12-01T08:56:54.633Z,6.03
2017-12-01T08:59:22.793Z,5.60
2017-12-01T09:01:50.907Z,6.90
2017-12-01T09:04:19.794Z,9.73
2017-12-01T09:06:48.716Z,6.97
2017-12-01T09:09:16.837Z,6.97
2017-12-01T09:11:44.945Z,8.50
2017-12-01T09:14:13.836Z,6.97
2017-12-01T09:16:42.090Z,7.03
2017-12-01T09:19:10.276Z,7.65
2017-12-01T09:21:38.369Z,7.57
2017-12-01T09:24:06.493Z,5.78
2017-12-01T09:26:34.629Z,4.90
2017-12-01T09:29:02.754Z,3.97
2017-12-01T09:31:31.674Z,5.90
2017-12-01T09:34:00.531Z,6.40
2017-12-01T09:36:29.403Z,4.65
2017-12-01T09:38:57.531Z,7.15
2017-12-01T09:41:25.639Z,5.28
2017-12-01T09:43:53.753Z,4.40
2017-12-01T09:46:21.984Z,7.60
2017-12-01T09:48:50.113Z,3.95
2017-12-01T09:51:18.237Z,4.55
2017-12-01T09:53:46.354Z,6.30
2017-12-01T09:56:14.688Z,3.45
2017-12-01T09:58:42.839Z,4.47
2017-12-01T10:01:10.936Z,4.30
2017-12-01T10:03:39.065Z,5.43
2017-12-01T10:06:07.180Z,5.55
2017-12-01T10:08:35.319Z,4.85
2017-12-01T10:11:03.446Z,5.35
2017-12-01T10:13:32.335Z,4.93
2017-12-01T10:16:00.442Z,6.57
2017-12-01T10:18:28.562Z,4.05
2017-12-01T10:20:57.464Z,6.00
2017-12-01T10:23:26.338Z,4.90
2017-12-01T10:25:55.234Z,5.32
2017-12-01T10:28:24.111Z,9.02
2017-12-01T10:30:52.239Z,5.87
2017-12-01T10:33:20.364Z,4.00
2017-12-01T10:35:48.477Z,5.90
2017-12-01T10:38:16.591Z,4.43
2017-12-01T10:40:44.718Z,4.50
2017-12-01T10:43:12.828Z,4.18
2017-12-01T10:45:40.953Z,6.82
2017-12-01T10:48:09.072Z,5.53
2017-12-01T10:50:37.211Z,5.00
2017-12-01T10:53:05.322Z,5.37
2017-12-01T10:55:33.446Z,4.15
2017-12-01T10:58:01.559Z,5.95
2017-12-01T11:00:29.712Z,6.32
2017-12-01T11:02:57.815Z,5.37
2017-12-01T11:05:25.920Z,4.32
2017-12-01T11:07:54.050Z,3.62
2017-12-01T11:10:22.182Z,4.00
2017-12-01T11:12:50.302Z,6.35
2017-12-01T11:15:18.424Z,3.87
2017-12-01T11:17:46.548Z,3.58
2017-12-01T11:20:14.659Z,4.55
2017-12-01T11:22:42.783Z,4.78
2017-12-01T11:25:10.901Z,3.30
2017-12-01T11:27:39.039Z,3.30
2017-12-01T11:30:07.155Z,2.90
2017-12-01T11:32:35.326Z,3.72
2017-12-01T11:35:04.178Z,5.03
2017-12-01T11:37:33.065Z,3.72
2017-12-01T11:40:01.185Z,4.78
2017-12-01T11:42:29.320Z,4.03
2017-12-01T11:44:58.192Z,6.23
2017-12-01T11:47:26.303Z,3.87
2017-12-01T11:49:54.430Z,5.75
2017-12-01T11:52:22.551Z,4.43
2017-12-01T11:54:50.691Z,4.40
2017-12-01T11:57:19.574Z,5.47
2017-12-01T11:59:47.685Z,7.03
2017-12-01T12:02:15.816Z,4.32
2017-12-01T12:04:43.936Z,6.25
2017-12-01T12:07:12.064Z,4.18
2017-12-01T12:09:40.168Z,3.65
2017-12-01T12:12:08.291Z,3.90
2017-12-01T12:14:36.407Z,5.67
2017-12-01T12:17:04.529Z,5.75
2017-12-01T12:19:32.643Z,5.32
2017-12-01T12:22:01.538Z,4.80
2017-12-01T12:24:29.657Z,4.90
2017-12-01T12:26:57.773Z,5.80
2017-12-01T12:29:26.653Z,4.07
2017-12-01T12:31:55.539Z,3.40
2017-12-01T12:34:24.446Z,3.30
2017-12-01T12:36:53.333Z,4.47
2017-12-01T12:39:21.420Z,3.75
2017-12-01T12:41:49.544Z,4.07
2017-12-01T12:44:17.653Z,4.90
2017-12-01T12:46:45.789Z,3.83
2017-12-01T12:49:13.921Z,3.92
2017-12-01T12:51:42.066Z,3.72
2017-12-01T12:54:10.177Z,3.50
2017-12-01T12:56:38.349Z,3.70
2017-12-01T12:59:06.437Z,4.33
2017-12-01T13:01:34.548Z,3.90
2017-12-01T13:04:03.456Z,3.53
2017-12-01T13:06:31.575Z,3.92
2017-12-01T13:08:59.699Z,4.00
2017-12-01T13:11:27.816Z,4.10
2017-12-01T13:13:55.973Z,7.43
2017-12-01T13:16:24.233Z,3.37
2017-12-01T13:18:52.359Z,4.37
2017-12-01T13:21:20.472Z,6.78
2017-12-01T13:23:48.595Z,4.03
2017-12-01T13:26:16.716Z,3.58
2017-12-01T13:28:44.872Z,3.30
2017-12-01T13:31:13.746Z,5.97
2017-12-01T13:33:42.632Z,6.03
2017-12-01T13:36:11.660Z,3.87
2017-12-01T13:38:39.762Z,5.75
2017-12-01T13:41:07.905Z,9.30
2017-12-01T13:43:36.028Z,6.83
2017-12-01T13:46:04.193Z,4.53
2017-12-01T13:48:32.330Z,5.15
2017-12-01T13:51:00.450Z,5.72
2017-12-01T13:53:28.599Z,5.70
2017-12-01T13:55:56.706Z,5.25
2017-12-01T13:58:25.589Z,7.80
2017-12-01T14:00:54.459Z,7.43
2017-12-01T14:03:22.586Z,5.62
2017-12-01T14:05:51.528Z,6.10
2017-12-01T14:08:19.653Z,12.07
2017-12-01T14:10:47.778Z,11.00
2017-12-01T14:13:15.909Z,11.57
2017-12-01T14:15:44.046Z,10.50
2017-12-01T14:18:12.176Z,12.55
2017-12-01T14:20:40.299Z,7.70
2017-12-01T14:23:08.426Z,7.85
2017-12-01T14:25:36.556Z,7.20
2017-12-01T14:28:06.051Z,7.35
2017-12-01T14:30:34.156Z,8.38
2017-12-01T14:33:02.272Z,7.85
2017-12-01T14:35:31.145Z,8.10
2017-12-01T14:37:59.270Z,6.85
2017-12-01T14:40:27.375Z,6.80
2017-12-01T14:42:55.508Z,6.80
2017-12-01T14:45:23.624Z,5.90
2017-12-01T14:47:51.744Z,8.02
2017-12-01T14:50:19.867Z,7.25
2017-12-01T14:52:48.000Z,7.12
2017-12-01T14:55:16.127Z,7.12
2017-12-01T14:57:44.246Z,10.70
2017-12-01T15:00:12.369Z,5.90
2017-12-01T15:02:41.263Z,6.75
2017-12-01T15:05:09.520Z,7.87
2017-12-01T15:07:37.654Z,10.15
2017-12-01T15:10:05.803Z,9.25
2017-12-01T15:12:33.912Z,7.45
2017-12-01T15:15:02.074Z,8.70
2017-12-01T15:17:30.298Z,7.45
2017-12-01T15:19:58.355Z,9.23
2017-12-01T15:22:26.489Z,7.80
2017-12-01T15:24:54.626Z,9.13
2017-12-01T15:27:23.506Z,8.43
2017-12-01T15:29:52.390Z,19.53
2017-12-01T15:32:20.543Z,12.40
2017-12-01T15:34:48.660Z,11.88
2017-12-01T15:37:16.788Z,10.70
2017-12-01T15:39:44.910Z,9.60
2017-12-01T15:42:13.825Z,13.70
2017-12-01T15:44:41.990Z,10.63
2017-12-01T15:47:10.067Z,11.70
2017-12-01T15:49:38.212Z,10.48
2017-12-01T15:52:06.325Z,13.43
2017-12-01T15:54:34.479Z,17.20
2017-12-01T15:57:02.736Z,16.05
2017-12-01T15:59:31.647Z,17.27
2017-12-01T16:01:59.764Z,12.00
2017-12-01T16:04:27.885Z,10.98
2017-12-01T16:06:56.034Z,26.90
2017-12-01T16:09:24.927Z,60.70
2017-12-01T16:11:53.838Z,29.27
2017-12-01T16:14:21.960Z,26.10
2017-12-01T16:16:50.170Z,35.72
2017-12-01T16:19:19.076Z,34.83
2017-12-01T16:21:47.363Z,24.95
2017-12-01T16:24:15.483Z,22.80
2017-12-01T16:26:43.620Z,23.85
2017-12-01T16:29:11.751Z,19.17
2017-12-01T16:31:40.668Z,20.90
2017-12-01T16:34:08.793Z,19.70
2017-12-01T16:36:36.946Z,22.87
2017-12-01T16:39:05.087Z,17.55
2017-12-01T16:41:33.188Z,22.05
2017-12-01T16:44:02.103Z,28.50
2017-12-01T16:46:30.250Z,31.05
2017-12-01T16:48:58.369Z,20.75
2017-12-01T16:51:27.254Z,22.02
2017-12-01T16:53:56.175Z,16.77
2017-12-01T16:56:24.315Z,18.37
2017-12-01T16:58:53.238Z,14.63
2017-12-01T17:01:21.383Z,18.85
2017-12-01T17:03:50.283Z,19.15
2017-12-01T17:06:18.406Z,20.67
2017-12-01T17:08:46.645Z,32.40
2017-12-01T17:11:14.751Z,32.88
2017-12-01T17:13:42.990Z,33.07
2017-12-01T17:16:11.879Z,41.92
2017-12-01T17:18:40.030Z,47.50
2017-12-01T17:21:08.931Z,45.72
2017-12-01T17:23:37.077Z,35.17
2017-12-01T17:26:05.979Z,38.40
2017-12-01T17:28:34.880Z,39.53
2017-12-01T17:31:03.020Z,33.97
2017-12-01T17:33:31.189Z,28.17
2017-12-01T17:35:59.358Z,29.23
2017-12-01T17:38:27.471Z,30.60
2017-12-01T17:40:55.641Z,31.25
2017-12-01T17:43:23.777Z,27.27
2017-12-01T17:45:52.010Z,32.88
2017-12-01T17:48:20.137Z,27.67
2017-12-01T17:50:48.261Z,34.42
2017-12-01T17:53:16.401Z,31.20
2017-12-01T17:55:45.300Z,26.55
2017-12-01T17:58:13.434Z,25.50
2017-12-01T18:00:41.579Z,23.73
2017-12-01T18:03:09.719Z,20.10
2017-12-01T18:05:37.843Z,20.90
2017-12-01T18:08:05.973Z,17.95
2017-12-01T18:10:34.110Z,17.80
2017-12-01T18:13:03.026Z,14.68
2017-12-01T18:15:31.160Z,18.80
2017-12-01T18:17:59.315Z,19.75
2017-12-01T18:20:27.429Z,17.20
2017-12-01T18:22:56.316Z,16.40
2017-12-01T18:25:25.236Z,18.27
2017-12-01T18:27:53.350Z,20.00
2017-12-01T18:30:21.496Z,18.20
2017-12-01T18:32:49.636Z,23.30
2017-12-01T18:35:17.791Z,24.73
2017-12-01T18:37:46.680Z,22.58
2017-12-01T18:40:15.585Z,18.80
2017-12-01T18:42:43.711Z,21.05
2017-12-01T18:45:11.963Z,24.47
2017-12-01T18:47:40.106Z,20.40
2017-12-01T18:50:08.999Z,19.25
2017-12-01T18:52:37.158Z,26.70
2017-12-01T18:55:06.049Z,27.00
2017-12-01T18:57:34.967Z,27.25
2017-12-01T19:00:03.100Z,27.67
2017-12-01T19:02:32.017Z,26.98
2017-12-01T19:05:00.941Z,27.25
2017-12-01T19:07:29.072Z,29.37
2017-12-01T19:09:57.991Z,26.80
2017-12-01T19:12:26.152Z,24.65
2017-12-01T19:14:54.279Z,24.50
2017-12-01T19:17:22.397Z,21.70
2017-12-01T19:19:50.527Z,23.27
2017-12-01T19:22:18.932Z,22.80
2017-12-01T19:24:47.814Z,26.17
2017-12-01T19:27:16.697Z,19.35
2017-12-01T19:29:47.332Z,22.00
2017-12-01T19:32:18.609Z,18.35
2017-12-01T19:34:47.811Z,19.98
2017-12-01T19:37:18.510Z,21.27
2017-12-01T19:39:49.939Z,24.87
2017-12-01T19:42:20.404Z,20.20
2017-12-01T19:44:49.303Z,20.13
2017-12-01T19:47:17.442Z,21.33
2017-12-01T19:49:45.554Z,27.45
2017-12-01T19:52:14.767Z,26.30
2017-12-01T19:54:42.935Z,27.45
2017-12-01T19:57:11.102Z,25.12
2017-12-01T19:59:40.587Z,34.37
2017-12-01T20:02:08.778Z,24.77
2017-12-01T20:04:36.915Z,26.87
2017-12-01T20:07:05.823Z,25.25
2017-12-01T20:09:33.965Z,26.05
2017-12-01T20:12:02.922Z,31.00
2017-12-01T20:14:31.071Z,24.57
2017-12-01T20:16:59.210Z,25.73
2017-12-01T20:19:28.152Z,26.62
2017-12-01T20:21:56.287Z,26.45
2017-12-01T20:24:24.420Z,24.65
2017-12-01T20:26:54.056Z,22.23
2017-12-01T20:29:22.997Z,24.10
2017-12-01T20:31:51.154Z,27.02
2017-12-01T20:34:19.321Z,25.50
2017-12-01T20:36:47.462Z,21.73
2017-12-01T20:39:16.368Z,21.87
2017-12-01T20:41:44.504Z,27.10
2017-12-01T20:44:12.675Z,27.33
2017-12-01T20:46:40.809Z,24.35
2017-12-01T20:49:08.974Z,24.60
2017-12-01T20:51:37.171Z,21.98
2017-12-01T20:54:05.577Z,25.08
2017-12-01T20:56:33.786Z,23.50
2017-12-01T20:59:01.942Z,24.00
2017-12-01T21:01:30.095Z,25.77
2017-12-01T21:03:58.243Z,21.75
2017-12-01T21:06:26.390Z,24.45
2017-12-01T21:08:54.527Z,24.98
2017-12-01T21:11:23.450Z,28.62
2017-12-01T21:13:51.595Z,24.00
2017-12-01T21:16:20.511Z,27.02
2017-12-01T21:18:48.708Z,26.73
2017-12-01T21:21:16.960Z,21.37
2017-12-01T21:23:45.101Z,24.17
2017-12-01T21:26:14.057Z,24.73
2017-12-01T21:28:42.299Z,24.30
2017-12-01T21:31:10.456Z,26.45
2017-12-01T21:33:38.611Z,24.90
2017-12-01T21:36:06.749Z,22.83
2017-12-01T21:38:34.885Z,22.70
2017-12-01T21:41:03.038Z,22.67
2017-12-01T21:43:31.950Z,24.50
2017-12-01T21:46:00.074Z,28.00
2017-12-01T21:48:28.206Z,27.87
2017-12-01T21:50:56.368Z,25.05
2017-12-01T21:53:24.555Z,27.67
2017-12-01T21:55:52.706Z,26.25
2017-12-01T21:58:21.606Z,22.70
2017-12-01T22:00:51.224Z,35.92
2017-12-01T22:03:19.341Z,28.95
2017-12-01T22:05:47.492Z,28.00
2017-12-01T22:08:15.794Z,26.00
2017-12-01T22:10:43.923Z,29.83
2017-12-01T22:13:12.072Z,27.25
2017-12-01T22:15:40.982Z,31.75
2017-12-01T22:18:09.102Z,30.42
2017-12-01T22:20:37.285Z,31.37
2017-12-01T22:23:05.618Z,27.65
2017-12-01T22:25:33.882Z,30.70
2017-12-01T22:28:02.814Z,30.85
2017-12-01T22:30:30.946Z,34.10
2017-12-01T22:32:59.077Z,32.90
2017-12-01T22:35:28.030Z,34.30
2017-12-01T22:37:56.866Z,33.70
2017-12-01T22:40:25.787Z,33.38
2017-12-01T22:42:53.888Z,36.50
2017-12-01T22:45:22.924Z,32.73
2017-12-01T22:47:51.040Z,35.20
2017-12-01T22:50:19.171Z,32.65
2017-12-01T22:52:50.972Z,32.35
2017-12-01T22:55:19.088Z,30.83
2017-12-01T22:57:47.284Z,37.38
2017-12-01T23:00:16.153Z,36.70
2017-12-01T23:02:45.129Z,39.95
2017-12-01T23:05:13.203Z,35.60
2017-12-01T23:07:41.608Z,36.75
2017-12-01T23:10:10.478Z,37.20
2017-12-01T23:12:39.396Z,37.65
2017-12-01T23:15:07.559Z,41.70
2017-12-01T23:17:35.692Z,41.42
2017-12-01T23:20:03.813Z,36.35
2017-12-01T23:22:31.962Z,37.35
2017-12-01T23:25:01.232Z,36.53
2017-12-01T23:27:30.502Z,31.58
2017-12-01T23:29:58.628Z,37.13
2017-12-01T23:32:27.528Z,33.13
2017-12-01T23:34:57.376Z,33.47
2017-12-01T23:37:25.510Z,31.20
2017-12-01T23:39:54.399Z,34.38
2017-12-01T23:42:23.298Z,33.45
2017-12-01T23:44:52.283Z,33.60
2017-12-01T23:47:21.203Z,33.58
2017-12-01T23:49:49.321Z,33.20
2017-12-01T23:52:18.262Z,33.20
2017-12-01T23:54:46.459Z,34.38
2017-12-01T23:57:14.573Z,30.88
2017-12-01T23:59:43.457Z,33.73
